Terminal Aerodrome Forecast
Issued by NWS

Home | Current Version | Previous Version | Graphics & Text | Print | Product List | Glossary On
Versions: 1 2 3 4 5 6 7 8 9 10 11 12 13 14
037
FTUS43 KMPX 021739
TAFRWF
TAF
KRWF 021739Z 0218/0318 32008KT P6SM OVC020
     FM031100 19005KT P6SM OVC035
     FM031500 17007KT P6SM BKN050=

USA.gov is the U.S. government's official web portal to all federal, state and local government web resources and services.